Hamilton, OH (45011)

8:19 PM EST on February 10, 2016 (GMT -0500)
APRSWXNET | | Change Station
CLOSE
Current Station
Personal Weather Station
Location: Hamilton, OH
Elevation: 587 ft
Nearby Weather Stations

Elev 587 ft 39.41 °N, 84.49 °W | Updated 34 minutes ago

Overcast
Overcast
14 °F
Feels Like 6 °F
N
5
Wind Variable Wind from SSW
Gusts 10.0 mph

Today
High -- | Low -- °F
--% Chance of Precip.
Yesterday
High -- | Low -- °F
Precip. -- in
Pressure 30.16 in
Visibility 10.0 miles
Clouds Mostly Cloudy 4100 ft
Windchill 6 °F
Dew Point 7 °F
Humidity 72%
Rainfall in
Snow Depth Not available.
7:36 AM 6:08 PM
Waxing Crescent, 8% visible
METAR KHAO 110053Z AUTO 30004KT 10SM BKN041 M09/M14 A3012 RMK AO2 SLP212 T10941144
Pressure 30.16 in
Visibility 10.0 miles
Clouds Mostly Cloudy 4100 ft
Windchill 6 °F
Dew Point 7 °F
Humidity 72%
Rainfall in
Snow Depth Not available.
7:36 AM 6:08 PM
Waxing Crescent, 8% visible
METAR KHAO 110053Z AUTO 30004KT 10SM BKN041 M09/M14 A3012 RMK AO2 SLP212 T10941144

10-Day Weather Forecast

Almanac

Astronomy

Feb. 10, 2016 Rise Set
Actual Time
Civil Twilight
Nautical Twilight
Astronomical Twilight
Moon
Length of Visible Light
Length of Day
Tomorrow will be .
, % of the Moon is Illuminated

Today's Extremes

State Highs State Lows

Community

WunderPhotos

Upload Photos

1,891,961 photos uploaded!

WunderBlog® & News

Nearby

Air Quality

  Air Quality AQ Index Pollutant
Not available.

Snow Depth

Station Depth Elevation

Earthquake Activity

City Distance Mag. Time & Date
Minimum magnitude displayed is 2.5.

Coastal Water Temperatures

Place Temperature

Stations

Nearby Weather Stations

Station Location Temp. Windchill Dew Point Humidity Wind Precip. Elev Updated Type
                   

Watches & Warnings

There are currently no watches in effect.